Time;durP1;ratioP1;P1;durP2;ratioP2;P2;SDS_P1;SDS_P2;PMS_P1;PMS_P2;Temp;Humidity;BMP_temperature;BMP_pressure;BME280_temperature;BME280_humidity;BME280_pressure;Samples;Min_cycle;Max_cycle;Signal;HPM_P1;HPM_P2
2022/11/23 00:01:20;;;;;;;7.90;1.55;;;;;;;;;;5013552;28;20041;-79
2022/11/23 00:03:49;;;;;;;10.13;1.60;;;;;;;;;;5028126;28;20033;-79
2022/11/23 00:06:16;;;;;;;3.83;1.20;;;;;;;;;;5024069;28;20032;-79
2022/11/23 00:08:42;;;;;;;5.20;1.30;;;;;;;;;;5025691;28;20025;-79
2022/11/23 00:11:08;;;;;;;7.25;1.58;;;;;;;;;;5023311;28;20044;-80
2022/11/23 00:13:34;;;;;;;6.88;1.88;;;;;;;;;;5023399;28;20041;-79
2022/11/23 00:16:04;;;;;;;3.95;0.98;;;;;;;;;;5025052;28;20041;-79
2022/11/23 00:18:29;;;;;;;8.27;1.38;;;;;;;;;;5023014;28;20520;-79
2022/11/23 00:20:54;;;;;;;5.03;1.20;;;;;;;;;;5018039;28;20022;-79
2022/11/23 00:23:20;;;;;;;5.90;1.63;;;;;;;;;;5020130;28;20083;-80
2022/11/23 00:25:45;;;;;;;4.63;1.20;;;;;;;;;;5021748;28;20046;-79
2022/11/23 00:28:11;;;;;;;6.57;1.70;;;;;;;;;;5019491;28;20057;-78
2022/11/23 00:30:36;;;;;;;8.25;1.38;;;;;;;;;;5042477;28;20057;-78
2022/11/23 00:33:02;;;;;;;6.25;1.77;;;;;;;;;;5025851;28;20033;-78
2022/11/23 00:35:27;;;;;;;7.68;1.30;;;;;;;;;;5020680;28;20041;-78
2022/11/23 00:37:52;;;;;;;18.35;1.60;;;;;;;;;;5035695;28;20038;-79
2022/11/23 00:40:18;;;;;;;6.78;1.02;;;;;;;;;;5036067;28;20522;-78
2022/11/23 00:42:43;;;;;;;3.95;1.33;;;;;;;;;;5023442;28;20056;-79
2022/11/23 00:45:09;;;;;;;10.23;1.35;;;;;;;;;;5025200;28;20028;-78
2022/11/23 00:47:34;;;;;;;10.07;1.38;;;;;;;;;;5022151;28;20510;-79
2022/11/23 00:49:59;;;;;;;7.93;1.48;;;;;;;;;;5025741;28;20102;-79
2022/11/23 00:52:25;;;;;;;7.90;1.60;;;;;;;;;;5026759;28;20029;-79
2022/11/23 00:54:50;;;;;;;8.38;2.08;;;;;;;;;;5026000;28;20041;-79
2022/11/23 00:57:15;;;;;;;7.43;1.67;;;;;;;;;;5022234;28;20029;-79
2022/11/23 00:59:40;;;;;;;6.97;1.40;;;;;;;;;;5026701;28;20052;-79
2022/11/23 01:02:06;;;;;;;5.00;0.93;;;;;;;;;;5026483;28;20041;-79
2022/11/23 01:04:31;;;;;;;11.15;1.55;;;;;;;;;;5020740;28;20075;-79
2022/11/23 01:06:56;;;;;;;9.70;1.40;;;;;;;;;;5027320;28;20120;-79
2022/11/23 01:09:25;;;;;;;6.00;1.08;;;;;;;;;;5025168;28;20021;-79
2022/11/23 01:11:51;;;;;;;4.68;1.80;;;;;;;;;;5026790;28;20025;-79
2022/11/23 01:14:16;;;;;;;4.45;1.42;;;;;;;;;;5008514;28;20033;-79
2022/11/23 01:16:42;;;;;;;7.60;1.30;;;;;;;;;;5026625;28;20030;-79
2022/11/23 01:19:11;;;;;;;4.70;1.23;;;;;;;;;;5025578;28;20044;-79
2022/11/23 01:21:37;;;;;;;6.82;1.42;;;;;;;;;;5026483;28;20034;-78
2022/11/23 01:24:05;;;;;;;6.80;1.10;;;;;;;;;;5024855;28;20021;-79
2022/11/23 01:26:30;;;;;;;6.30;1.50;;;;;;;;;;5025400;28;20033;-78
2022/11/23 01:28:55;;;;;;;4.45;1.70;;;;;;;;;;5026139;28;20041;-79
2022/11/23 01:31:23;;;;;;;4.45;1.55;;;;;;;;;;5026069;28;20034;-79
2022/11/23 01:33:57;;;;;;;7.97;1.60;;;;;;;;;;5024023;28;20041;-78
2022/11/23 01:36:27;;;;;;;6.80;1.60;;;;;;;;;;5032150;28;20032;-79
2022/11/23 01:38:53;;;;;;;10.68;1.40;;;;;;;;;;5027106;28;20509;-79
2022/11/23 01:41:25;;;;;;;4.72;1.38;;;;;;;;;;5026443;28;20037;-79
2022/11/23 01:43:51;;;;;;;7.53;1.55;;;;;;;;;;5025174;28;20778;-78
2022/11/23 01:46:16;;;;;;;4.80;1.65;;;;;;;;;;5024668;28;20128;-79
2022/11/23 01:48:52;;;;;;;3.75;1.35;;;;;;;;;;5042271;28;20183;-79
2022/11/23 01:51:22;;;;;;;2.25;1.10;;;;;;;;;;5024549;28;20144;-79
2022/11/23 01:53:51;;;;;;;14.38;1.83;;;;;;;;;;5026056;28;20037;-78
2022/11/23 01:56:21;;;;;;;8.77;1.30;;;;;;;;;;5024648;28;20041;-79
2022/11/23 01:58:52;;;;;;;6.35;1.63;;;;;;;;;;5026064;28;20116;-79
2022/11/23 02:01:17;;;;;;;2.20;1.30;;;;;;;;;;5024754;28;20516;-79
2022/11/23 02:03:47;;;;;;;6.45;1.42;;;;;;;;;;5040986;28;20045;-78
2022/11/23 02:06:20;;;;;;;14.57;1.52;;;;;;;;;;5025167;28;20106;-78
2022/11/23 02:08:47;;;;;;;5.22;1.30;;;;;;;;;;5013917;28;20028;-78
2022/11/23 02:11:14;;;;;;;12.85;1.38;;;;;;;;;;5026008;28;20041;-78
2022/11/23 02:13:46;;;;;;;5.45;1.27;;;;;;;;;;5025796;28;20086;-79
2022/11/23 02:16:12;;;;;;;7.60;2.10;;;;;;;;;;5026996;28;20061;-79
2022/11/23 02:18:41;;;;;;;6.63;1.50;;;;;;;;;;5028097;28;20044;-79
2022/11/23 02:21:07;;;;;;;3.75;1.10;;;;;;;;;;5030557;28;20060;-79
2022/11/23 02:23:51;;;;;;;4.63;1.30;;;;;;;;;;5028399;28;20414;-78
2022/11/23 02:26:26;;;;;;;6.78;1.40;;;;;;;;;;5020105;28;20049;-78
2022/11/23 02:28:57;;;;;;;10.50;1.85;;;;;;;;;;5022440;28;20030;-78
2022/11/23 02:31:23;;;;;;;6.22;1.48;;;;;;;;;;5005319;28;20096;-78
2022/11/23 02:33:48;;;;;;;4.20;1.10;;;;;;;;;;5028596;28;20033;-77
2022/11/23 02:36:48;;;;;;;9.43;1.63;;;;;;;;;;5025563;28;20634;-78
2022/11/23 02:39:29;;;;;;;3.58;1.00;;;;;;;;;;5022393;28;20129;-78
2022/11/23 02:41:55;;;;;;;3.30;1.00;;;;;;;;;;5010768;28;20051;-79
2022/11/23 02:44:42;;;;;;;5.22;0.90;;;;;;;;;;5023681;28;20060;-79
2022/11/23 02:47:09;;;;;;;5.75;1.33;;;;;;;;;;5026359;28;20099;-78
2022/11/23 02:49:34;;;;;;;5.65;1.35;;;;;;;;;;5025775;28;20107;-78
2022/11/23 02:52:00;;;;;;;12.55;1.42;;;;;;;;;;5027474;28;20553;-78
2022/11/23 02:54:26;;;;;;;8.75;1.80;;;;;;;;;;5027291;28;20030;-79
2022/11/23 02:56:51;;;;;;;11.65;1.67;;;;;;;;;;5028224;28;20021;-79
2022/11/23 02:59:17;;;;;;;4.07;1.38;;;;;;;;;;5027662;28;20087;-78
2022/11/23 03:01:42;;;;;;;10.35;1.40;;;;;;;;;;5028662;28;20034;-79
2022/11/23 03:04:08;;;;;;;7.43;2.20;;;;;;;;;;5027861;28;20047;-78
2022/11/23 03:06:33;;;;;;;10.18;1.67;;;;;;;;;;5029245;28;20042;-78
2022/11/23 03:08:59;;;;;;;9.30;1.42;;;;;;;;;;5027641;28;20030;-78
2022/11/23 03:11:24;;;;;;;7.53;1.38;;;;;;;;;;5023347;28;20037;-79
2022/11/23 03:13:49;;;;;;;10.70;1.33;;;;;;;;;;5028578;28;20485;-78
2022/11/23 03:16:15;;;;;;;10.18;1.40;;;;;;;;;;5029547;28;20514;-79
2022/11/23 03:18:41;;;;;;;11.52;1.58;;;;;;;;;;5027502;28;20474;-78
2022/11/23 03:21:07;;;;;;;5.85;0.93;;;;;;;;;;5026303;28;20498;-79
2022/11/23 03:23:33;;;;;;;9.68;2.17;;;;;;;;;;5022877;28;20045;-79
2022/11/23 03:25:59;;;;;;;11.18;1.60;;;;;;;;;;5044291;28;20040;-79
2022/11/23 03:28:25;;;;;;;5.90;0.98;;;;;;;;;;5007831;28;20038;-79
2022/11/23 03:30:50;;;;;;;10.68;1.75;;;;;;;;;;5024911;28;20117;-79
2022/11/23 03:33:16;;;;;;;9.95;1.65;;;;;;;;;;5027125;28;20032;-78
2022/11/23 03:35:42;;;;;;;6.82;1.48;;;;;;;;;;5025396;28;20088;-78
2022/11/23 03:38:07;;;;;;;6.95;1.00;;;;;;;;;;5039126;28;20053;-79
2022/11/23 03:40:32;;;;;;;4.10;1.15;;;;;;;;;;5013666;28;20096;-78
2022/11/23 03:42:58;;;;;;;3.35;1.00;;;;;;;;;;5026958;28;20042;-78
2022/11/23 03:45:23;;;;;;;4.10;1.10;;;;;;;;;;5030423;28;20049;-79
2022/11/23 03:47:48;;;;;;;4.95;1.27;;;;;;;;;;5022832;28;20100;-78
2022/11/23 03:50:14;;;;;;;6.45;1.52;;;;;;;;;;5028472;28;20038;-79
2022/11/23 03:52:39;;;;;;;11.63;1.20;;;;;;;;;;5026695;28;20840;-79
2022/11/23 03:55:05;;;;;;;5.13;1.10;;;;;;;;;;5028220;28;20278;-78
2022/11/23 03:57:30;;;;;;;8.90;1.25;;;;;;;;;;5028248;28;20041;-78
2022/11/23 03:59:55;;;;;;;9.95;1.55;;;;;;;;;;5028351;28;20084;-79
2022/11/23 04:02:21;;;;;;;4.60;1.23;;;;;;;;;;5028292;28;20099;-78
2022/11/23 04:04:46;;;;;;;6.43;1.10;;;;;;;;;;5025945;28;20032;-78
2022/11/23 04:07:11;;;;;;;5.22;1.38;;;;;;;;;;5015124;28;20710;-79
2022/11/23 04:09:36;;;;;;;7.95;1.33;;;;;;;;;;5028533;28;20041;-78
2022/11/23 04:12:02;;;;;;;4.65;1.55;;;;;;;;;;5028706;28;20025;-78
2022/11/23 04:14:27;;;;;;;6.03;1.85;;;;;;;;;;5026166;28;20411;-79
2022/11/23 04:16:53;;;;;;;4.32;1.27;;;;;;;;;;5027012;28;20041;-78
2022/11/23 04:19:18;;;;;;;4.50;1.88;;;;;;;;;;5025555;28;20037;-78
2022/11/23 04:21:43;;;;;;;11.00;1.70;;;;;;;;;;5022662;28;21003;-79
2022/11/23 04:24:09;;;;;;;4.60;0.85;;;;;;;;;;5023550;28;20490;-78
2022/11/23 04:26:34;;;;;;;8.52;1.33;;;;;;;;;;5027492;28;20033;-78
2022/11/23 04:28:59;;;;;;;5.15;1.52;;;;;;;;;;5027777;28;20602;-78
2022/11/23 04:31:25;;;;;;;8.98;1.45;;;;;;;;;;5027666;28;20425;-78
2022/11/23 04:33:50;;;;;;;9.40;1.30;;;;;;;;;;5027641;28;20043;-78
2022/11/23 04:36:15;;;;;;;3.25;0.77;;;;;;;;;;5024224;28;20029;-78
2022/11/23 04:38:40;;;;;;;5.93;1.48;;;;;;;;;;5024881;28;20012;-78
2022/11/23 04:41:06;;;;;;;3.60;1.08;;;;;;;;;;5026220;28;20033;-78
2022/11/23 04:43:31;;;;;;;2.50;1.45;;;;;;;;;;5025453;28;20029;-77
2022/11/23 04:45:56;;;;;;;0.60;0.50;;;;;;;;;;5014830;28;20069;-78
2022/11/23 04:48:22;;;;;;;6.15;1.05;;;;;;;;;;5021305;28;20075;-78
2022/11/23 04:50:47;;;;;;;3.67;1.20;;;;;;;;;;5028166;28;20025;-78
2022/11/23 04:53:13;;;;;;;6.32;2.03;;;;;;;;;;5022998;28;20033;-78
2022/11/23 04:55:39;;;;;;;3.15;1.30;;;;;;;;;;5024334;28;20049;-78
2022/11/23 04:58:04;;;;;;;7.53;1.48;;;;;;;;;;5025223;28;20056;-78
2022/11/23 05:00:30;;;;;;;7.60;1.58;;;;;;;;;;5027277;28;20587;-78
2022/11/23 05:02:58;;;;;;;2.38;0.65;;;;;;;;;;5025845;28;20029;-78
2022/11/23 05:05:24;;;;;;;4.40;0.90;;;;;;;;;;5026133;28;20056;-79
2022/11/23 05:07:49;;;;;;;7.13;1.38;;;;;;;;;;5026948;28;20042;-78
2022/11/23 05:10:14;;;;;;;5.97;0.90;;;;;;;;;;5027165;28;20474;-78
2022/11/23 05:12:41;;;;;;;2.42;1.27;;;;;;;;;;5026951;28;20606;-78
2022/11/23 05:15:06;;;;;;;2.85;0.85;;;;;;;;;;5027204;28;20036;-78
2022/11/23 05:17:33;;;;;;;3.92;1.17;;;;;;;;;;5026984;28;20034;-78
2022/11/23 05:19:58;;;;;;;3.60;1.17;;;;;;;;;;5016043;28;20038;-77
2022/11/23 05:22:23;;;;;;;4.40;0.75;;;;;;;;;;5026716;28;20443;-78
2022/11/23 05:24:49;;;;;;;6.00;1.38;;;;;;;;;;5026707;28;20025;-78
2022/11/23 05:27:14;;;;;;;4.00;1.00;;;;;;;;;;5026110;28;20048;-78
2022/11/23 05:29:39;;;;;;;4.35;2.05;;;;;;;;;;5025843;28;20033;-78
2022/11/23 05:32:05;;;;;;;7.72;1.10;;;;;;;;;;5023511;28;20045;-79
2022/11/23 05:34:30;;;;;;;1.75;0.70;;;;;;;;;;5020878;28;20034;-78
2022/11/23 05:36:55;;;;;;;3.15;0.85;;;;;;;;;;5026794;28;20108;-78
2022/11/23 05:39:22;;;;;;;6.72;1.33;;;;;;;;;;5026227;28;20411;-78
2022/11/23 05:41:47;;;;;;;5.10;0.88;;;;;;;;;;5022566;28;20083;-78
2022/11/23 05:44:12;;;;;;;4.80;1.02;;;;;;;;;;5021829;28;20038;-79
2022/11/23 05:46:38;;;;;;;5.38;0.88;;;;;;;;;;5025456;28;20049;-78
2022/11/23 05:49:03;;;;;;;10.18;1.95;;;;;;;;;;5024697;28;20417;-77
2022/11/23 05:51:28;;;;;;;8.10;1.63;;;;;;;;;;5028749;28;20064;-78
2022/11/23 05:53:55;;;;;;;3.35;1.35;;;;;;;;;;5030617;28;20021;-78
2022/11/23 05:56:21;;;;;;;3.33;1.50;;;;;;;;;;5029341;28;20057;-79
2022/11/23 05:58:46;;;;;;;8.18;1.45;;;;;;;;;;5028569;28;20426;-78
2022/11/23 06:01:12;;;;;;;11.63;1.48;;;;;;;;;;5029210;28;20049;-78
2022/11/23 06:03:37;;;;;;;9.88;2.05;;;;;;;;;;5025818;28;20029;-78
2022/11/23 06:06:02;;;;;;;1.45;0.98;;;;;;;;;;5029538;28;20021;-78
2022/11/23 06:08:28;;;;;;;2.78;1.13;;;;;;;;;;5028903;28;20474;-78
2022/11/23 06:10:53;;;;;;;1.45;0.85;;;;;;;;;;5028572;28;20037;-78
2022/11/23 06:13:18;;;;;;;3.05;1.30;;;;;;;;;;5030078;28;20037;-78
2022/11/23 06:15:43;;;;;;;5.80;1.00;;;;;;;;;;5029504;28;20037;-78
2022/11/23 06:18:09;;;;;;;11.45;1.88;;;;;;;;;;5027869;28;20056;-78
2022/11/23 06:20:34;;;;;;;3.70;1.02;;;;;;;;;;5025516;28;20399;-78
2022/11/23 06:22:59;;;;;;;4.35;1.10;;;;;;;;;;5029906;28;20037;-77
2022/11/23 06:25:25;;;;;;;3.25;1.23;;;;;;;;;;5020695;28;20025;-78
2022/11/23 06:27:58;;;;;;;4.65;1.67;;;;;;;;;;5043679;28;20116;-78
2022/11/23 06:30:25;;;;;;;8.15;1.50;;;;;;;;;;5030280;28;20037;-78
2022/11/23 06:32:50;;;;;;;2.40;0.80;;;;;;;;;;5030197;28;20018;-78
2022/11/23 06:35:16;;;;;;;1.77;1.10;;;;;;;;;;5028542;28;20410;-78
2022/11/23 06:37:42;;;;;;;8.85;1.27;;;;;;;;;;5026894;28;20045;-78
2022/11/23 06:40:09;;;;;;;3.08;1.20;;;;;;;;;;5024869;28;20029;-78
2022/11/23 06:42:34;;;;;;;4.30;1.38;;;;;;;;;;5029766;28;20461;-78
2022/11/23 06:45:00;;;;;;;7.70;1.30;;;;;;;;;;5027812;28;20487;-79
2022/11/23 06:47:27;;;;;;;4.85;1.35;;;;;;;;;;5027156;28;20033;-78
2022/11/23 06:49:52;;;;;;;2.47;1.13;;;;;;;;;;5024921;28;20674;-79
2022/11/23 06:52:17;;;;;;;1.00;1.00;;;;;;;;;;5022923;28;20048;-78
2022/11/23 06:54:43;;;;;;;7.60;1.35;;;;;;;;;;5020038;28;20075;-78
2022/11/23 06:57:08;;;;;;;5.38;1.67;;;;;;;;;;5021449;28;20052;-79
2022/11/23 06:59:34;;;;;;;6.75;1.75;;;;;;;;;;5027269;28;20093;-78
2022/11/23 07:01:59;;;;;;;2.17;0.90;;;;;;;;;;5022853;28;20090;-78
2022/11/23 07:04:24;;;;;;;6.93;1.02;;;;;;;;;;5017225;28;20052;-79
2022/11/23 07:06:50;;;;;;;7.82;1.92;;;;;;;;;;5030357;28;20523;-79
2022/11/23 07:09:15;;;;;;;3.50;1.02;;;;;;;;;;5029597;28;20021;-79
2022/11/23 07:11:42;;;;;;;2.95;1.40;;;;;;;;;;4996598;28;20434;-77
2022/11/23 07:14:07;;;;;;;2.75;1.05;;;;;;;;;;4963648;28;20633;-79
2022/11/23 07:16:33;;;;;;;10.90;1.40;;;;;;;;;;5024201;28;20120;-79
2022/11/23 07:18:58;;;;;;;7.20;1.80;;;;;;;;;;5025180;28;20053;-79
2022/11/23 07:21:23;;;;;;;8.77;1.65;;;;;;;;;;5025594;28;20038;-79
2022/11/23 07:23:49;;;;;;;3.70;1.35;;;;;;;;;;5020528;28;20407;-80
2022/11/23 07:26:14;;;;;;;10.23;1.90;;;;;;;;;;4832997;28;20025;-79
2022/11/23 07:28:40;;;;;;;5.22;1.50;;;;;;;;;;5002924;28;20041;-79
2022/11/23 07:31:05;;;;;;;4.57;2.10;;;;;;;;;;5021846;28;20517;-79
2022/11/23 07:33:31;;;;;;;9.00;2.55;;;;;;;;;;5027111;28;20514;-78
2022/11/23 07:36:00;;;;;;;5.57;1.33;;;;;;;;;;5023975;28;20466;-82
2022/11/23 07:38:25;;;;;;;12.95;2.28;;;;;;;;;;5026250;28;20128;-82
2022/11/23 07:40:51;;;;;;;7.40;1.92;;;;;;;;;;5028367;28;20518;-82
2022/11/23 07:43:16;;;;;;;2.03;1.10;;;;;;;;;;5026905;28;20052;-82
2022/11/23 07:45:41;;;;;;;4.45;1.42;;;;;;;;;;5026246;28;20098;-82
2022/11/23 07:48:08;;;;;;;4.72;1.92;;;;;;;;;;5021728;28;20497;-83
2022/11/23 07:50:35;;;;;;;3.05;0.77;;;;;;;;;;5022399;28;20121;-82
2022/11/23 07:53:02;;;;;;;8.65;1.63;;;;;;;;;;5015629;28;20098;-82
2022/11/23 07:55:29;;;;;;;8.07;1.13;;;;;;;;;;5019946;28;20510;-83
2022/11/23 07:57:55;;;;;;;11.07;1.27;;;;;;;;;;5018329;28;20079;-82
2022/11/23 08:00:21;;;;;;;1.92;1.20;;;;;;;;;;5026611;28;20033;-82
2022/11/23 08:02:47;;;;;;;5.30;2.28;;;;;;;;;;5021828;28;20119;-83
2022/11/23 08:05:13;;;;;;;1.75;1.40;;;;;;;;;;5020697;28;20095;-82
2022/11/23 08:07:39;;;;;;;2.70;1.55;;;;;;;;;;5022290;28;20029;-84
2022/11/23 08:10:04;;;;;;;6.25;1.25;;;;;;;;;;5019755;28;20118;-78
2022/11/23 08:12:30;;;;;;;3.85;1.67;;;;;;;;;;5019852;28;20075;-81
2022/11/23 08:14:55;;;;;;;6.53;1.92;;;;;;;;;;5025095;28;20069;-81
2022/11/23 08:17:20;;;;;;;2.60;1.48;;;;;;;;;;5008462;28;20037;-80
2022/11/23 08:19:46;;;;;;;7.70;2.25;;;;;;;;;;5025555;28;20056;-81
2022/11/23 08:22:11;;;;;;;4.63;1.25;;;;;;;;;;5021795;28;20038;-82
2022/11/23 08:24:36;;;;;;;2.45;1.05;;;;;;;;;;5026051;28;20025;-81
2022/11/23 08:27:02;;;;;;;2.50;1.83;;;;;;;;;;5026692;28;20730;-82
2022/11/23 08:29:28;;;;;;;6.63;1.13;;;;;;;;;;5028020;28;20087;-81
2022/11/23 08:31:54;;;;;;;5.28;2.47;;;;;;;;;;5025644;28;20036;-81
2022/11/23 08:34:19;;;;;;;3.20;1.52;;;;;;;;;;5026981;28;20041;-81
2022/11/23 08:36:44;;;;;;;4.63;1.25;;;;;;;;;;5023308;28;20033;-81
2022/11/23 08:39:11;;;;;;;3.75;1.17;;;;;;;;;;5026866;28;20117;-81
2022/11/23 08:41:37;;;;;;;9.13;1.58;;;;;;;;;;5025698;28;20079;-82
2022/11/23 08:44:03;;;;;;;4.72;1.67;;;;;;;;;;5022303;28;20033;-81
2022/11/23 08:46:28;;;;;;;2.45;1.40;;;;;;;;;;5041640;28;20111;-82
2022/11/23 08:48:54;;;;;;;5.28;1.23;;;;;;;;;;5024479;28;20029;-81
2022/11/23 08:51:21;;;;;;;5.40;1.88;;;;;;;;;;5025330;28;20041;-82
2022/11/23 08:53:47;;;;;;;5.13;1.40;;;;;;;;;;5026639;28;20053;-80
2022/11/23 08:56:13;;;;;;;7.32;1.75;;;;;;;;;;5025373;28;20037;-82
2022/11/23 08:58:38;;;;;;;2.30;1.20;;;;;;;;;;5027252;28;20103;-81
2022/11/23 09:01:12;;;;;;;3.22;1.77;;;;;;;;;;5020645;28;20041;-83
2022/11/23 09:03:38;;;;;;;3.33;1.52;;;;;;;;;;5020351;28;20457;-83
2022/11/23 09:06:03;;;;;;;6.32;1.85;;;;;;;;;;5024507;28;20025;-83
2022/11/23 09:08:29;;;;;;;1.77;1.33;;;;;;;;;;5024141;28;20680;-83
2022/11/23 09:10:59;;;;;;;5.63;1.20;;;;;;;;;;5026333;28;20026;-84
2022/11/23 09:13:25;;;;;;;4.95;2.08;;;;;;;;;;5024636;28;20080;-84
2022/11/23 09:15:50;;;;;;;3.47;1.08;;;;;;;;;;5024689;28;20033;-84
2022/11/23 09:18:15;;;;;;;7.80;1.70;;;;;;;;;;5023406;28;20549;-84
2022/11/23 09:20:40;;;;;;;4.78;1.70;;;;;;;;;;5017403;28;20018;-83
2022/11/23 09:23:06;;;;;;;2.35;1.73;;;;;;;;;;5017958;28;20052;-82
2022/11/23 09:25:31;;;;;;;1.38;1.25;;;;;;;;;;5022718;28;20037;-83
2022/11/23 09:28:03;;;;;;;3.00;1.10;;;;;;;;;;5024257;28;20021;-83
2022/11/23 09:30:28;;;;;;;1.73;0.98;;;;;;;;;;5024243;28;20052;-83
2022/11/23 09:32:55;;;;;;;0.85;0.70;;;;;;;;;;5025590;28;20441;-83
2022/11/23 09:35:21;;;;;;;3.45;1.77;;;;;;;;;;5022364;28;20038;-83
2022/11/23 09:37:46;;;;;;;6.07;1.50;;;;;;;;;;5020660;28;20056;-83
2022/11/23 09:40:16;;;;;;;8.98;1.67;;;;;;;;;;5025804;28;20045;-84
2022/11/23 09:42:51;;;;;;;1.05;0.95;;;;;;;;;;5025706;28;20044;-84
2022/11/23 09:45:23;;;;;;;3.83;1.00;;;;;;;;;;5024720;28;20022;-84
2022/11/23 09:48:03;;;;;;;8.88;2.20;;;;;;;;;;5022700;28;20022;-84
2022/11/23 09:50:51;;;;;;;4.97;2.05;;;;;;;;;;5024310;28;20048;-84
2022/11/23 09:53:21;;;;;;;3.50;1.85;;;;;;;;;;5010805;28;20041;-84
2022/11/23 09:55:49;;;;;;;4.35;1.45;;;;;;;;;;5021143;28;20053;-84
2022/11/23 09:58:18;;;;;;;1.23;1.13;;;;;;;;;;5021034;28;20064;-84
2022/11/23 10:00:56;;;;;;;3.53;1.10;;;;;;;;;;5026400;28;20041;-84
2022/11/23 10:03:21;;;;;;;2.75;1.65;;;;;;;;;;5014440;28;20083;-84
2022/11/23 10:05:54;;;;;;;3.92;1.60;;;;;;;;;;5026741;28;20029;-84
2022/11/23 10:08:35;;;;;;;;;;;;;;;;;;5024842;28;20541;-84
2022/11/23 10:11:03;;;;;;;7.80;1.52;;;;;;;;;;5024652;28;20313;-84
2022/11/23 10:13:51;;;;;;;2.35;1.05;;;;;;;;;;5025902;28;20052;-84
2022/11/23 10:16:17;;;;;;;3.15;1.25;;;;;;;;;;5014341;28;20063;-85
2022/11/23 10:18:49;;;;;;;1.58;1.25;;;;;;;;;;5012693;28;20041;-83
2022/11/23 10:21:53;;;;;;;1.92;0.60;;;;;;;;;;5005035;28;20037;-84
2022/11/23 10:24:23;;;;;;;2.65;1.65;;;;;;;;;;5023648;28;20033;-84
2022/11/23 10:26:50;;;;;;;5.50;1.98;;;;;;;;;;5020196;28;20014;-84
2022/11/23 10:29:31;;;;;;;1.60;1.08;;;;;;;;;;5021677;28;20187;-84
2022/11/23 10:31:57;;;;;;;1.25;0.85;;;;;;;;;;5024266;28;20041;-85
2022/11/23 10:34:47;;;;;;;4.88;1.35;;;;;;;;;;5025561;28;20044;-85
2022/11/23 10:37:14;;;;;;;1.92;1.50;;;;;;;;;;5011353;28;20064;-78
2022/11/23 10:39:40;;;;;;;6.00;1.30;;;;;;;;;;5021258;28;20041;-86
2022/11/23 10:42:27;;;;;;;2.03;0.50;;;;;;;;;;5021818;28;20079;-87
2022/11/23 10:44:55;;;;;;;5.45;1.25;;;;;;;;;;5028369;28;20116;-86
2022/11/23 10:47:41;;;;;;;2.80;0.68;;;;;;;;;;5029526;28;20442;-84
2022/11/23 10:50:40;;;;;;;6.32;1.42;;;;;;;;;;5026184;28;20064;-85
2022/11/23 10:53:25;;;;;;;3.28;1.35;;;;;;;;;;4990586;28;20040;-84
2022/11/23 10:55:56;;;;;;;3.13;1.00;;;;;;;;;;5024906;28;20030;-84
2022/11/23 10:58:25;;;;;;;1.30;1.05;;;;;;;;;;5027924;28;20041;-84
2022/11/23 11:01:02;;;;;;;1.80;0.90;;;;;;;;;;5027362;28;20610;-84
2022/11/23 11:03:33;;;;;;;3.03;1.10;;;;;;;;;;5021541;28;20025;-88
2022/11/23 11:05:59;;;;;;;3.05;1.15;;;;;;;;;;5030335;28;20490;-86
2022/11/23 11:08:29;;;;;;;4.97;0.90;;;;;;;;;;5032101;28;20032;-87
2022/11/23 11:11:03;;;;;;;3.67;1.02;;;;;;;;;;5033414;28;20429;-89
2022/11/23 11:13:30;;;;;;;1.90;1.05;;;;;;;;;;5030079;28;20526;-84
2022/11/23 11:16:04;;;;;;;1.65;0.88;;;;;;;;;;5028139;28;20625;-85
2022/11/23 11:18:32;;;;;;;1.52;0.95;;;;;;;;;;5027327;28;20029;-84
2022/11/23 11:21:05;;;;;;;3.45;0.85;;;;;;;;;;5027403;28;20028;-86
2022/11/23 11:23:32;;;;;;;1.55;0.77;;;;;;;;;;5029252;28;20525;-85
2022/11/23 11:26:04;;;;;;;0.80;0.70;;;;;;;;;;5027604;28;20025;-84
2022/11/23 11:28:42;;;;;;;2.45;0.70;;;;;;;;;;5027226;28;20596;-85
2022/11/23 11:31:24;;;;;;;1.67;0.90;;;;;;;;;;5026005;28;20034;-85
2022/11/23 11:33:57;;;;;;;2.45;0.85;;;;;;;;;;5028331;28;20025;-87
2022/11/23 11:36:24;;;;;;;;;;;;;;;;;;5024007;28;20104;-85
2022/11/23 11:38:54;;;;;;;0.73;0.60;;;;;;;;;;5024379;28;20261;-86
2022/11/23 11:41:24;;;;;;;0.90;0.40;;;;;;;;;;5024638;28;20076;-86
2022/11/23 11:43:54;;;;;;;3.70;0.50;;;;;;;;;;5027813;28;20064;-84
2022/11/23 11:46:30;;;;;;;3.33;0.60;;;;;;;;;;5028182;28;20065;-86
2022/11/23 11:49:11;;;;;;;1.27;1.00;;;;;;;;;;5021018;28;20041;-84
2022/11/23 11:51:45;;;;;;;4.57;0.73;;;;;;;;;;5018091;28;20409;-86
2022/11/23 11:54:13;;;;;;;;;;;;;;;;;;5018005;28;20075;-86
2022/11/23 11:56:45;;;;;;;1.73;0.75;;;;;;;;;;5015885;28;20424;-85
2022/11/23 11:59:28;;;;;;;0.55;0.55;;;;;;;;;;5022573;28;20085;-84
2022/11/23 12:02:44;;;;;;;0.80;0.57;;;;;;;;;;5022069;28;20040;-85
2022/11/23 12:05:19;;;;;;;0.90;0.47;;;;;;;;;;5009814;28;20079;-85
2022/11/23 12:08:12;;;;;;;1.92;0.70;;;;;;;;;;5021247;28;20033;-85
2022/11/23 12:10:43;;;;;;;1.05;0.88;;;;;;;;;;5036615;28;20053;-80
2022/11/23 12:13:26;;;;;;;0.55;0.50;;;;;;;;;;5028059;28;20041;-84
2022/11/23 12:16:14;;;;;;;3.03;0.80;;;;;;;;;;5027998;28;20034;-85
2022/11/23 12:18:54;;;;;;;1.42;0.77;;;;;;;;;;5020076;28;20585;-85
2022/11/23 12:21:29;;;;;;;5.43;1.50;;;;;;;;;;5043250;28;20029;-86
2022/11/23 12:24:13;;;;;;;2.30;1.52;;;;;;;;;;5032366;28;20025;-88
2022/11/23 12:26:56;;;;;;;3.30;1.35;;;;;;;;;;5024682;28;20770;-88
2022/11/23 12:29:51;;;;;;;5.60;1.80;;;;;;;;;;5042151;28;20034;-87
2022/11/23 12:32:43;;;;;;;3.30;1.13;;;;;;;;;;5042001;28;20326;-87
2022/11/23 12:35:34;;;;;;;3.22;1.00;;;;;;;;;;5037703;28;20034;-86
2022/11/23 12:38:37;;;;;;;7.85;2.13;;;;;;;;;;5028937;28;20042;-85
2022/11/23 12:41:09;;;;;;;5.65;1.70;;;;;;;;;;5029143;28;20029;-86
2022/11/23 12:44:06;;;;;;;3.38;2.45;;;;;;;;;;5028909;28;20033;-87
2022/11/23 12:46:53;;;;;;;4.07;2.42;;;;;;;;;;5027488;28;20041;-86
2022/11/23 12:49:32;;;;;;;4.05;1.48;;;;;;;;;;5024869;28;20088;-87
2022/11/23 12:52:16;;;;;;;10.07;2.25;;;;;;;;;;5023659;28;20040;-86
2022/11/23 12:55:00;;;;;;;4.75;2.13;;;;;;;;;;5027180;28;20568;-86
2022/11/23 12:57:33;;;;;;;4.13;1.55;;;;;;;;;;5026779;28;20498;-86
2022/11/23 13:00:01;;;;;;;2.25;0.63;;;;;;;;;;5018022;28;20053;-87
2022/11/23 13:02:57;;;;;;;1.48;0.85;;;;;;;;;;5022522;28;20060;-86
2022/11/23 13:05:38;;;;;;;1.33;0.70;;;;;;;;;;5043382;28;20140;-85
2022/11/23 13:08:03;;;;;;;4.03;0.95;;;;;;;;;;5025464;28;20064;-86
2022/11/23 13:10:43;;;;;;;0.75;0.63;;;;;;;;;;5020957;28;20130;-86
2022/11/23 13:13:21;;;;;;;1.00;0.90;;;;;;;;;;5031711;28;20091;-87
2022/11/23 13:16:18;;;;;;;6.65;1.60;;;;;;;;;;5025136;28;20045;-86
2022/11/23 13:19:02;;;;;;;1.83;1.10;;;;;;;;;;5022984;28;20040;-85
2022/11/23 13:21:45;;;;;;;3.75;1.10;;;;;;;;;;5027636;28;20096;-86
2022/11/23 13:24:25;;;;;;;2.17;0.88;;;;;;;;;;5029297;28;20021;-86
2022/11/23 13:27:26;;;;;;;2.08;1.25;;;;;;;;;;5026383;28;20116;-86
2022/11/23 13:29:51;;;;;;;1.17;1.08;;;;;;;;;;4958073;28;20041;-86
2022/11/23 13:32:38;;;;;;;2.05;1.10;;;;;;;;;;5021711;28;20464;-87
2022/11/23 13:35:13;;;;;;;1.58;0.90;;;;;;;;;;5026859;28;20044;-87
2022/11/23 13:37:56;;;;;;;1.05;0.80;;;;;;;;;;5027079;28;20033;-87
2022/11/23 13:40:29;;;;;;;18.52;1.00;;;;;;;;;;5026369;28;20586;-86
2022/11/23 13:43:18;;;;;;;3.17;1.38;;;;;;;;;;5028568;28;20493;-86
2022/11/23 13:45:44;;;;;;;1.00;0.70;;;;;;;;;;5026613;28;20116;-87
2022/11/23 13:48:09;;;;;;;4.47;0.80;;;;;;;;;;5025551;28;20013;-87
2022/11/23 13:50:38;;;;;;;1.13;0.70;;;;;;;;;;5026390;28;20048;-86
2022/11/23 13:53:21;;;;;;;2.20;0.80;;;;;;;;;;5025794;28;20076;-86
2022/11/23 13:55:47;;;;;;;3.38;1.20;;;;;;;;;;5016630;28;20096;-86
2022/11/23 13:58:24;;;;;;;1.42;1.30;;;;;;;;;;5023302;28;20201;-86
2022/11/23 14:00:50;;;;;;;5.50;1.20;;;;;;;;;;5024391;28;20025;-86
2022/11/23 14:03:59;;;;;;;2.65;1.20;;;;;;;;;;5026858;28;20025;-85
2022/11/23 14:06:42;;;;;;;1.65;1.10;;;;;;;;;;5001423;28;20064;-86
2022/11/23 14:09:07;;;;;;;1.33;0.90;;;;;;;;;;5040729;28;20021;-87
2022/11/23 14:11:47;;;;;;;1.45;0.98;;;;;;;;;;5026335;28;20149;-87
2022/11/23 14:14:20;;;;;;;3.60;1.40;;;;;;;;;;5026144;28;20079;-86
2022/11/23 14:16:54;;;;;;;2.28;1.30;;;;;;;;;;5030628;28;20037;-86
2022/11/23 14:19:26;;;;;;;2.50;1.30;;;;;;;;;;5026644;28;20541;-87
2022/11/23 14:22:14;;;;;;;2.05;1.35;;;;;;;;;;5027601;28;20026;-86
2022/11/23 14:25:09;;;;;;;2.42;1.20;;;;;;;;;;5029768;28;20061;-85
2022/11/23 14:27:56;;;;;;;1.95;1.23;;;;;;;;;;5025333;28;20029;-92
2022/11/23 14:30:54;;;;;;;1.83;1.10;;;;;;;;;;5026411;28;20021;-86
2022/11/23 14:33:43;;;;;;;4.00;1.30;;;;;;;;;;5024080;28;20514;-86
2022/11/23 14:36:16;;;;;;;4.00;1.55;;;;;;;;;;5025468;28;20063;-87
2022/11/23 14:38:42;;;;;;;1.35;1.10;;;;;;;;;;5030980;28;20046;-86
2022/11/23 14:41:26;;;;;;;1.75;0.90;;;;;;;;;;5026023;28;20038;-86
2022/11/23 14:43:52;;;;;;;1.50;1.08;;;;;;;;;;5024312;28;20043;-85
2022/11/23 14:46:20;;;;;;;2.33;1.20;;;;;;;;;;5030718;28;20050;-86
2022/11/23 14:48:47;;;;;;;1.38;1.00;;;;;;;;;;5030730;28;20104;-86
2022/11/23 14:51:17;;;;;;;2.10;1.10;;;;;;;;;;5029403;28;20025;-85
2022/11/23 14:53:45;;;;;;;2.60;1.55;;;;;;;;;;5031096;28;20053;-84
2022/11/23 14:56:21;;;;;;;1.80;1.48;;;;;;;;;;5023056;28;20045;-85
2022/11/23 14:58:48;;;;;;;2.40;1.00;;;;;;;;;;5028510;28;20025;-85
2022/11/23 15:01:20;;;;;;;3.20;1.30;;;;;;;;;;5028315;28;20114;-84